Time;durP1;ratioP1;P1;durP2;ratioP2;P2;SDS_P1;SDS_P2;PMS_P1;PMS_P2;Temp;Humidity;BMP_temperature;BMP_pressure;BME280_temperature;BME280_humidity;BME280_pressure;Samples;Min_cycle;Max_cycle;Signal;HPM_P1;HPM_P2
2022/04/26 03:36:10;;;;;;;324.58;129.20;;;;;;;16.14;71.66;99213.16;343242;28;1977;-76
2022/04/26 03:36:20;;;;;;;328.33;129.95;;;;;;;16.12;71.81;99217.69;345054;28;1133;-76
2022/04/26 03:36:31;;;;;;;329.17;130.50;;;;;;;16.13;71.70;99222.00;344396;28;1161;-75
2022/04/26 03:36:41;;;;;;;328.27;129.93;;;;;;;16.14;71.79;99215.78;344229;28;1348;-76
2022/04/26 03:36:52;;;;;;;320.97;128.40;;;;;;;16.13;72.01;99219.38;344252;28;1304;-76
2022/04/26 03:37:05;;;;;;;317.67;126.18;;;;;;;16.11;71.77;99215.16;342885;28;1268;-76
2022/04/26 03:37:19;;;;;;;317.63;125.43;;;;;;;16.13;72.08;99216.72;343073;28;1600;-76
2022/04/26 03:37:32;;;;;;;319.00;124.25;;;;;;;16.14;71.84;99221.06;344428;28;971;-76
2022/04/26 03:37:45;;;;;;;317.52;124.60;;;;;;;16.13;71.82;99224.66;343402;28;849;-76
2022/04/26 03:37:55;;;;;;;321.20;126.03;;;;;;;16.15;71.95;99216.63;344303;28;1320;-76
2022/04/26 03:38:05;;;;;;;322.33;126.93;;;;;;;16.14;71.68;99221.06;344657;28;1113;-76
2022/04/26 03:38:18;;;;;;;320.63;127.25;;;;;;;16.10;72.06;99216.94;342686;28;1294;-76
2022/04/26 03:38:28;;;;;;;321.75;127.88;;;;;;;16.09;71.86;99212.63;342358;28;1316;-75
2022/04/26 03:38:45;;;;;;;326.25;128.95;;;;;;;16.13;72.04;99223.81;343563;28;1370;-76
2022/04/26 03:38:55;;;;;;;328.33;130.38;;;;;;;16.12;72.02;99222.13;343552;28;1394;-76
2022/04/26 03:39:06;;;;;;;331.42;132.82;;;;;;;16.11;71.93;99221.28;343581;28;1314;-76
2022/04/26 03:39:16;;;;;;;333.90;131.73;;;;;;;16.10;72.15;99219.59;344791;28;1240;-76
2022/04/26 03:39:27;;;;;;;334.50;132.13;;;;;;;16.10;72.08;99224.03;345022;28;834;-76
2022/04/26 03:39:37;;;;;;;331.67;129.43;;;;;;;16.10;72.18;99218.75;346250;28;1279;-77
2022/04/26 03:39:47;;;;;;;330.30;131.05;;;;;;;16.09;72.12;99228.47;343603;28;849;-76
2022/04/26 03:39:58;;;;;;;330.73;132.07;;;;;;;16.09;72.06;99225.81;344831;28;1333;-76
2022/04/26 03:40:09;;;;;;;331.52;133.52;;;;;;;16.09;72.00;99223.19;344094;28;1620;-76
2022/04/26 03:40:20;;;;;;;329.98;131.23;;;;;;;16.07;72.09;99225.09;345244;28;985;-76
2022/04/26 03:40:30;;;;;;;326.75;129.13;;;;;;;16.07;71.98;99219.81;343769;28;785;-76
2022/04/26 03:40:41;;;;;;;323.73;127.20;;;;;;;16.06;71.99;99220.75;344870;28;1263;-76
2022/04/26 03:40:51;;;;;;;324.75;128.88;;;;;;;16.07;72.39;99230.34;343557;28;912;-76
2022/04/26 03:41:01;;;;;;;327.13;129.97;;;;;;;16.06;72.02;99218.09;344746;28;1301;-76
2022/04/26 03:41:12;;;;;;;327.47;130.43;;;;;;;16.05;71.79;99223.50;342248;28;939;-78
2022/04/26 03:41:22;;;;;;;327.38;129.75;;;;;;;16.06;72.11;99228.66;344759;28;1354;-76
2022/04/26 03:41:33;;;;;;;325.77;127.97;;;;;;;16.02;71.95;99229.88;347815;28;822;-76
2022/04/26 03:41:43;;;;;;;327.00;128.70;;;;;;;16.05;72.48;99224.34;344777;28;1320;-76
2022/04/26 03:41:54;;;;;;;329.00;129.50;;;;;;;16.05;71.93;99226.13;345082;28;1275;-76
2022/04/26 03:42:04;;;;;;;331.33;131.83;;;;;;;16.04;72.18;99230.56;344544;28;1778;-75
2022/04/26 03:42:15;;;;;;;329.35;130.95;;;;;;;16.04;72.12;99224.44;344885;28;900;-76
2022/04/26 03:42:25;;;;;;;330.50;133.33;;;;;;;16.05;72.02;99226.97;343495;28;1204;-76
2022/04/26 03:42:36;;;;;;;329.42;131.35;;;;;;;16.06;72.28;99228.66;345029;28;1101;-76
2022/04/26 03:42:46;;;;;;;329.77;133.13;;;;;;;16.06;72.18;99226.03;343690;28;1361;-76
2022/04/26 03:42:56;;;;;;;324.90;131.60;;;;;;;16.06;72.02;99223.38;346306;28;1374;-75
2022/04/26 03:43:07;;;;;;;327.25;131.73;;;;;;;16.06;71.95;99228.66;345023;28;1085;-75
2022/04/26 03:43:17;;;;;;;332.30;130.90;;;;;;;16.09;71.95;99233.75;341082;29;801;-75
2022/04/26 03:43:29;;;;;;;333.38;131.23;;;;;;;16.09;71.82;99231.09;345015;28;1331;-75
2022/04/26 03:43:39;;;;;;;330.52;132.52;;;;;;;16.09;71.85;99231.09;343793;28;4631;-75
2022/04/26 03:43:50;;;;;;;325.03;131.27;;;;;;;16.10;71.86;99231.94;346766;28;2984;-76
2022/04/26 03:44:00;;;;;;;327.45;132.15;;;;;;;16.09;72.08;99228.47;343777;28;1310;-76
2022/04/26 03:44:11;;;;;;;328.50;131.40;;;;;;;16.08;71.80;99229.41;343492;28;3000;-76
2022/04/26 03:44:21;;;;;;;331.10;131.87;;;;;;;16.10;72.05;99232.78;342983;28;1216;-76
2022/04/26 03:44:31;;;;;;;324.77;129.38;;;;;;;16.10;71.90;99230.16;345309;28;1224;-75
2022/04/26 03:44:42;;;;;;;321.80;128.13;;;;;;;16.08;71.87;99225.91;343958;28;1741;-75
2022/04/26 03:44:53;;;;;;;321.73;127.95;;;;;;;16.08;71.86;99232.06;344025;28;1247;-75
2022/04/26 03:45:03;;;;;;;321.05;127.35;;;;;;;16.06;71.61;99226.03;342418;28;1611;-75
2022/04/26 03:45:14;;;;;;;322.17;127.10;;;;;;;16.07;71.88;99229.50;343756;28;1210;-75
2022/04/26 03:45:24;;;;;;;322.63;127.63;;;;;;;16.06;71.85;99231.31;343662;28;1589;-75
2022/04/26 03:45:35;;;;;;;328.10;129.83;;;;;;;16.08;72.10;99231.19;342445;28;1534;-75
2022/04/26 03:45:45;;;;;;;329.83;131.18;;;;;;;16.05;71.86;99229.63;342269;28;1356;-75
2022/04/26 03:45:56;;;;;;;333.90;132.23;;;;;;;16.06;72.13;99228.66;343679;28;1335;-76
2022/04/26 03:46:06;;;;;;;335.48;130.75;;;;;;;16.06;72.10;99228.66;343633;28;1359;-76
2022/04/26 03:46:17;;;;;;;334.20;131.10;;;;;;;16.06;71.99;99230.47;343580;28;1259;-76
2022/04/26 03:46:27;;;;;;;329.70;130.37;;;;;;;16.08;71.82;99225.91;343606;28;1315;-76
2022/04/26 03:46:37;;;;;;;326.83;130.77;;;;;;;16.10;71.72;99229.31;346274;28;1219;-75
2022/04/26 03:46:48;;;;;;;326.98;131.65;;;;;;;16.08;71.84;99226.78;344691;28;2121;-75
2022/04/26 03:46:59;;;;;;;327.43;130.10;;;;;;;16.10;72.18;99235.44;347652;28;1203;-75
2022/04/26 03:47:09;;;;;;;327.08;129.88;;;;;;;16.09;71.84;99228.47;347638;28;1345;-75
2022/04/26 03:47:20;;;;;;;329.70;127.75;;;;;;;16.08;71.95;99232.06;344859;28;1364;-76
2022/04/26 03:47:30;;;;;;;327.20;127.57;;;;;;;16.08;71.82;99220.66;343718;28;1320;-76
2022/04/26 03:47:40;;;;;;;327.73;126.57;;;;;;;16.09;71.74;99224.97;343801;28;1765;-76
2022/04/26 03:47:51;;;;;;;325.20;128.33;;;;;;;16.09;72.10;99231.09;343654;28;1200;-76
2022/04/26 03:48:01;;;;;;;329.40;129.27;;;;;;;16.08;72.00;99224.13;342399;28;881;-75
2022/04/26 03:48:12;;;;;;;326.17;129.40;;;;;;;16.09;71.71;99232.91;343411;28;1460;-75
2022/04/26 03:48:22;;;;;;;324.57;128.90;;;;;;;16.10;72.10;99230.16;343616;28;1350;-75
2022/04/26 03:48:33;;;;;;;324.67;130.45;;;;;;;16.11;71.92;99231.00;345012;28;1338;-75
2022/04/26 03:48:43;;;;;;;326.63;131.53;;;;;;;16.09;72.15;99228.47;344987;28;1406;-75
2022/04/26 03:48:53;;;;;;;328.52;130.55;;;;;;;16.08;72.15;99231.19;344998;28;1112;-75
2022/04/26 03:49:04;;;;;;;332.10;131.70;;;;;;;16.06;72.21;99225.19;345021;28;888;-75
2022/04/26 03:49:14;;;;;;;331.63;130.45;;;;;;;16.05;72.08;99226.97;345199;28;794;-75
2022/04/26 03:49:24;;;;;;;331.83;131.77;;;;;;;16.05;72.30;99237.53;345056;28;1231;-75
2022/04/26 03:49:35;;;;;;;330.27;130.07;;;;;;;16.04;71.95;99225.28;343553;28;1388;-75
2022/04/26 03:49:46;;;;;;;332.57;131.13;;;;;;;16.06;71.85;99233.94;342295;28;1430;-75
2022/04/26 03:49:56;;;;;;;334.30;129.27;;;;;;;16.07;71.86;99230.34;342275;28;826;-75
2022/04/26 03:50:07;;;;;;;330.57;128.50;;;;;;;16.07;71.76;99230.34;344159;28;2114;-75
2022/04/26 03:50:17;;;;;;;330.45;128.23;;;;;;;16.07;71.83;99225.09;344795;28;1092;-75
2022/04/26 03:50:28;;;;;;;333.05;130.55;;;;;;;16.07;71.64;99233.00;346363;28;1222;-75
2022/04/26 03:50:38;;;;;;;335.20;133.07;;;;;;;16.08;71.73;99234.69;344239;28;1186;-75
2022/04/26 03:50:48;;;;;;;328.90;131.50;;;;;;;16.05;71.89;99232.25;344989;28;1358;-75
2022/04/26 03:50:59;;;;;;;329.90;130.50;;;;;;;16.04;71.75;99227.94;344979;28;1267;-75
2022/04/26 03:51:10;;;;;;;327.98;125.53;;;;;;;16.03;71.76;99228.88;343556;28;1420;-76
2022/04/26 03:51:20;;;;;;;331.77;126.13;;;;;;;16.04;71.96;99225.28;345075;28;1208;-76
2022/04/26 03:51:31;;;;;;;332.65;127.47;;;;;;;16.04;71.69;99233.22;345007;28;1279;-76
2022/04/26 03:51:42;;;;;;;333.27;128.77;;;;;;;16.05;72.04;99226.97;343458;28;1552;-76
2022/04/26 03:51:52;;;;;;;330.60;130.00;;;;;;;16.05;71.73;99232.25;343831;28;1216;-76
2022/04/26 03:52:03;;;;;;;330.55;130.77;;;;;;;16.03;71.99;99228.88;344990;28;1310;-75
2022/04/26 03:52:13;;;;;;;333.55;131.65;;;;;;;16.04;71.66;99233.22;344672;28;1255;-77
2022/04/26 03:52:24;;;;;;;336.53;131.20;;;;;;;16.03;71.82;99234.16;344995;28;961;-76
2022/04/26 03:52:34;;;;;;;333.60;130.67;;;;;;;16.03;71.88;99226.25;345033;28;1515;-76
2022/04/26 03:52:45;;;;;;;330.63;130.17;;;;;;;16.05;71.90;99232.25;342189;28;3772;-76
2022/04/26 03:52:55;;;;;;;331.77;132.10;;;;;;;16.06;72.11;99230.47;340126;28;4555;-75
2022/04/26 03:53:05;;;;;;;332.83;131.77;;;;;;;16.08;71.45;99228.56;343654;28;1457;-75
2022/04/26 03:53:16;;;;;;;334.20;132.67;;;;;;;16.07;71.64;99233.00;344532;28;1902;-74
2022/04/26 03:53:26;;;;;;;332.58;130.40;;;;;;;16.07;71.65;99227.72;342206;28;3334;-75
2022/04/26 03:53:37;;;;;;;330.17;130.77;;;;;;;16.09;71.59;99239.00;344947;28;842;-75
2022/04/26 03:53:47;;;;;;;327.60;128.98;;;;;;;16.07;71.52;99235.63;344929;28;1508;-75
2022/04/26 03:53:58;;;;;;;328.48;128.98;;;;;;;16.08;71.49;99233.84;344981;28;1330;-75
2022/04/26 03:54:08;;;;;;;336.67;129.47;;;;;;;16.07;71.41;99232.16;343607;28;1221;-75
2022/04/26 03:54:21;;;;;;;338.20;130.97;;;;;;;16.05;71.37;99234.91;346331;28;1215;-75
2022/04/26 03:54:32;;;;;;;339.20;131.32;;;;;;;16.04;71.22;99229.72;345027;28;1589;-75
2022/04/26 03:54:42;;;;;;;332.83;131.97;;;;;;;16.06;71.23;99233.09;343504;28;1432;-75
2022/04/26 03:54:53;;;;;;;332.75;131.82;;;;;;;16.04;71.28;99235.84;344892;28;1774;-75
2022/04/26 03:55:03;;;;;;;333.77;132.43;;;;;;;16.03;70.99;99228.88;345885;28;1867;-75
2022/04/26 03:55:14;;;;;;;331.25;131.30;;;;;;;16.04;71.10;99227.09;343357;28;1353;-75
2022/04/26 03:55:24;;;;;;;336.07;130.33;;;;;;;16.05;70.80;99232.25;343036;28;1304;-75
2022/04/26 03:55:35;;;;;;;336.60;128.70;;;;;;;16.02;71.38;99227.22;344868;28;861;-75
2022/04/26 03:55:45;;;;;;;339.27;127.87;;;;;;;16.03;71.25;99236.81;343548;28;1433;-75
2022/04/26 03:55:56;;;;;;;334.75;128.82;;;;;;;16.03;71.35;99234.16;343709;28;1295;-75
2022/04/26 03:56:06;;;;;;;336.97;129.70;;;;;;;16.00;71.14;99234.41;343601;28;790;-75
2022/04/26 03:56:16;;;;;;;332.67;129.85;;;;;;;16.04;71.28;99233.22;343600;28;1922;-75
2022/04/26 03:56:27;;;;;;;336.47;131.47;;;;;;;16.01;70.98;99233.44;341281;28;2151;-76
2022/04/26 03:56:37;;;;;;;333.33;132.77;;;;;;;16.00;71.36;99237.03;343222;28;1307;-76
2022/04/26 03:56:51;;;;;;;330.80;132.40;;;;;;;16.03;71.37;99238.63;344962;28;1367;-76
2022/04/26 03:57:02;;;;;;;326.15;131.80;;;;;;;16.01;71.24;99240.53;344782;28;1275;-75
2022/04/26 03:57:12;;;;;;;332.67;131.40;;;;;;;16.02;71.68;99242.22;344948;28;1291;-75
2022/04/26 03:57:23;;;;;;;336.03;130.27;;;;;;;16.01;71.23;99236.09;346110;28;1109;-74
2022/04/26 03:57:33;;;;;;;337.77;131.13;;;;;;;16.00;71.16;99238.84;345316;28;916;-74
2022/04/26 03:57:43;;;;;;;336.00;133.18;;;;;;;16.02;71.11;99236.94;343739;28;881;-75
2022/04/26 03:57:54;;;;;;;332.00;131.07;;;;;;;16.01;71.51;99236.09;346327;28;1216;-75
2022/04/26 03:58:06;;;;;;;330.15;128.95;;;;;;;16.01;71.55;99241.38;345069;28;845;-79
2022/04/26 03:58:16;;;;;;;328.67;127.43;;;;;;;16.03;71.51;99242.09;342290;28;1575;-76
2022/04/26 03:58:26;;;;;;;330.23;129.60;;;;;;;16.03;71.46;99239.44;342521;28;857;-76
2022/04/26 03:58:37;;;;;;;330.98;130.00;;;;;;;16.03;71.45;99243.91;345040;28;1067;-76
2022/04/26 03:58:47;;;;;;;327.80;127.47;;;;;;;16.04;71.80;99238.50;344990;28;1212;-76
2022/04/26 03:58:58;;;;;;;323.97;127.93;;;;;;;16.04;71.75;99237.66;343735;28;785;-76
2022/04/26 03:59:08;;;;;;;328.65;128.88;;;;;;;16.04;71.68;99243.78;342304;28;1213;-76
2022/04/26 03:59:21;;;;;;;331.37;131.53;;;;;;;16.02;71.66;99242.22;343667;28;1228;-75
2022/04/26 03:59:31;;;;;;;330.90;129.68;;;;;;;16.03;71.73;99234.16;344997;28;1307;-75
2022/04/26 03:59:42;;;;;;;326.05;129.18;;;;;;;16.04;71.71;99237.66;345119;28;1219;-75
2022/04/26 03:59:53;;;;;;;327.77;131.33;;;;;;;16.03;71.83;99242.09;342394;28;1199;-75
2022/04/26 04:00:04;;;;;;;330.00;133.30;;;;;;;16.01;71.79;99241.38;342405;28;1810;-75
2022/04/26 04:00:15;;;;;;;332.40;135.05;;;;;;;15.99;72.04;99248.56;340351;28;1094;-76
2022/04/26 04:00:26;;;;;;;337.57;138.90;;;;;;;15.97;71.88;99239.88;340901;28;1110;-76
2022/04/26 04:00:36;;;;;;;342.27;140.18;;;;;;;15.98;72.05;99246.88;346113;28;904;-75
2022/04/26 04:00:47;;;;;;;339.63;137.52;;;;;;;15.99;72.07;99242.44;343576;28;1200;-75
2022/04/26 04:00:57;;;;;;;335.77;133.33;;;;;;;16.00;72.13;99244.97;346459;28;1281;-75
2022/04/26 04:01:07;;;;;;;330.08;130.85;;;;;;;16.00;72.20;99242.31;343635;28;1215;-75
2022/04/26 04:01:18;;;;;;;334.70;131.80;;;;;;;15.98;72.21;99236.31;345230;28;1993;-75
2022/04/26 04:01:28;;;;;;;333.23;133.30;;;;;;;15.98;72.49;99240.75;345893;28;1318;-75
2022/04/26 04:01:39;;;;;;;334.90;135.63;;;;;;;16.00;72.36;99244.13;342319;28;951;-75
2022/04/26 04:01:49;;;;;;;332.02;134.52;;;;;;;16.01;72.35;99241.38;343382;28;844;-75
2022/04/26 04:02:00;;;;;;;334.50;134.20;;;;;;;16.01;71.97;99244.00;342646;28;4387;-76
2022/04/26 04:02:10;;;;;;;333.10;133.63;;;;;;;15.99;72.33;99248.56;344181;28;5468;-75
2022/04/26 04:02:21;;;;;;;336.57;136.10;;;;;;;15.97;72.07;99245.16;344986;28;1762;-74
2022/04/26 04:02:31;;;;;;;335.55;134.02;;;;;;;15.99;72.03;99245.91;346922;28;1709;-75
2022/04/26 04:02:42;;;;;;;337.03;133.97;;;;;;;15.98;71.89;99241.59;346530;28;868;-75
2022/04/26 04:02:52;;;;;;;333.52;130.55;;;;;;;15.98;71.90;99246.88;343626;28;916;-75
2022/04/26 04:03:03;;;;;;;331.90;133.00;;;;;;;15.98;71.69;99241.59;344799;28;1476;-75
2022/04/26 04:03:13;;;;;;;331.25;133.70;;;;;;;15.97;71.66;99239.88;345020;28;1694;-76
2022/04/26 04:03:23;;;;;;;326.43;132.63;;;;;;;15.99;71.55;99248.56;345005;28;924;-77
2022/04/26 04:03:38;;;;;;;325.58;130.18;;;;;;;16.01;71.50;99245.81;343707;28;889;-76
2022/04/26 04:03:48;;;;;;;328.83;128.82;;;;;;;16.00;72.11;99244.13;344817;28;1054;-76
2022/04/26 04:03:58;;;;;;;330.60;127.90;;;;;;;16.00;71.94;99247.59;344466;28;1268;-76
2022/04/26 04:04:09;;;;;;;333.00;130.63;;;;;;;16.01;71.71;99249.28;343581;28;1394;-76
2022/04/26 04:04:19;;;;;;;331.60;131.90;;;;;;;16.01;71.46;99244.00;347680;28;1192;-76
2022/04/26 04:04:30;;;;;;;331.33;133.38;;;;;;;16.00;71.02;99244.13;346314;28;1363;-76
2022/04/26 04:04:40;;;;;;;326.63;131.27;;;;;;;16.01;71.27;99241.38;343498;28;1544;-76
2022/04/26 04:04:51;;;;;;;327.90;130.25;;;;;;;16.01;70.92;99246.66;346240;28;1243;-76
2022/04/26 04:05:01;;;;;;;332.37;132.67;;;;;;;16.01;70.96;99244.00;346623;28;793;-75
2022/04/26 04:05:11;;;;;;;334.50;133.07;;;;;;;16.05;70.71;99255.19;345922;28;1711;-75
2022/04/26 04:05:22;;;;;;;332.77;133.80;;;;;;;16.02;70.69;99243.06;343530;28;1171;-75
2022/04/26 04:05:33;;;;;;;327.80;131.15;;;;;;;16.02;70.67;99245.69;343532;28;1191;-75
2022/04/26 04:05:43;;;;;;;330.63;132.50;;;;;;;16.01;70.23;99254.56;342240;28;1200;-75
2022/04/26 04:05:53;;;;;;;328.93;131.30;;;;;;;16.00;70.27;99244.97;343485;28;1307;-75
2022/04/26 04:06:04;;;;;;;333.00;134.37;;;;;;;16.01;70.03;99249.28;341577;28;1762;-77
2022/04/26 04:06:15;;;;;;;333.15;133.02;;;;;;;16.03;70.06;99249.19;343168;28;1658;-76
2022/04/26 04:06:25;;;;;;;334.42;133.00;;;;;;;16.02;69.46;99248.34;343590;28;1343;-76
2022/04/26 04:06:35;;;;;;;331.73;130.37;;;;;;;16.02;68.97;99247.50;343011;28;1127;-76
2022/04/26 04:06:46;;;;;;;334.40;129.60;;;;;;;16.02;68.79;99247.50;343566;28;863;-75
2022/04/26 04:06:56;;;;;;;331.60;128.50;;;;;;;16.04;68.67;99241.13;343602;28;1220;-75
2022/04/26 04:07:07;;;;;;;329.80;128.93;;;;;;;16.02;67.74;99243.06;343470;28;904;-75
2022/04/26 04:07:18;;;;;;;326.08;130.65;;;;;;;16.06;67.63;99254.22;344727;28;1016;-75
2022/04/26 04:07:29;;;;;;;330.90;130.90;;;;;;;16.03;67.40;99244.72;343569;28;1653;-76
2022/04/26 04:07:39;;;;;;;330.53;130.63;;;;;;;16.05;67.18;99247.25;345336;28;873;-75
2022/04/26 04:07:50;;;;;;;330.98;129.88;;;;;;;16.05;67.05;99245.47;343590;28;1217;-76
2022/04/26 04:08:00;;;;;;;327.43;129.03;;;;;;;16.06;66.99;99243.66;343514;28;1176;-76
2022/04/26 04:08:11;;;;;;;327.58;128.93;;;;;;;16.05;67.11;99247.25;344949;28;750;-75
2022/04/26 04:08:21;;;;;;;327.30;129.13;;;;;;;16.06;66.67;99243.66;346168;28;1180;-75
2022/04/26 04:08:32;;;;;;;328.58;129.30;;;;;;;16.06;66.75;99251.59;345008;28;821;-75
2022/04/26 04:08:42;;;;;;;328.93;129.57;;;;;;;16.08;66.38;99257.59;343604;28;1300;-75
2022/04/26 04:08:52;;;;;;;325.52;130.00;;;;;;;16.08;66.40;99247.88;343443;28;1359;-75
2022/04/26 04:09:03;;;;;;;324.83;129.90;;;;;;;16.07;66.19;99251.47;342359;28;1221;-75
2022/04/26 04:09:13;;;;;;;321.73;129.80;;;;;;;16.04;65.90;99246.41;343511;28;1435;-75
2022/04/26 04:09:24;;;;;;;322.45;129.35;;;;;;;16.05;65.79;99248.09;343494;28;1252;-75
2022/04/26 04:09:34;;;;;;;323.67;128.83;;;;;;;16.05;65.88;99248.09;342262;28;1054;-76
2022/04/26 04:09:44;;;;;;;327.95;132.43;;;;;;;16.04;65.72;99245.56;343491;28;1200;-77
2022/04/26 04:09:56;;;;;;;328.03;133.97;;;;;;;16.03;65.62;99250.00;342257;28;1241;-77
2022/04/26 04:10:06;;;;;;;327.30;134.90;;;;;;;16.03;65.64;99244.72;345133;28;1548;-77
2022/04/26 04:10:17;;;;;;;326.73;132.25;;;;;;;16.03;65.80;99250.00;345196;28;1282;-76
2022/04/26 04:10:27;;;;;;;325.80;131.98;;;;;;;16.05;65.59;99253.38;346246;28;826;-76
2022/04/26 04:10:38;;;;;;;323.40;129.00;;;;;;;16.06;65.19;99247.16;344921;28;817;-76
2022/04/26 04:10:48;;;;;;;322.35;127.55;;;;;;;16.05;65.38;99248.09;344639;28;1690;-76
2022/04/26 04:10:58;;;;;;;324.40;128.60;;;;;;;16.07;65.34;99256.75;345298;28;1366;-76
2022/04/26 04:11:09;;;;;;;322.07;130.53;;;;;;;16.09;64.81;99251.38;343396;28;4954;-76
2022/04/26 04:11:19;;;;;;;323.35;133.35;;;;;;;16.09;65.13;99254.84;343995;28;3177;-76
2022/04/26 04:11:30;;;;;;;326.33;134.67;;;;;;;16.08;64.54;99253.16;343522;28;900;-76
2022/04/26 04:11:40;;;;;;;330.67;135.95;;;;;;;16.08;64.83;99254.97;344704;28;1378;-76
2022/04/26 04:11:50;;;;;;;329.10;135.23;;;;;;;16.07;64.60;99256.75;344734;28;3244;-76
2022/04/26 04:12:01;;;;;;;327.80;132.45;;;;;;;16.07;64.67;99251.47;344958;28;861;-76
2022/04/26 04:12:11;;;;;;;330.47;132.50;;;;;;;16.09;64.56;99254.84;344786;28;1312;-76
2022/04/26 04:12:22;;;;;;;332.07;131.93;;;;;;;16.09;64.84;99256.66;343254;28;1314;-77
2022/04/26 04:12:32;;;;;;;331.03;135.57;;;;;;;16.09;64.92;99259.28;344749;28;1212;-75
2022/04/26 04:12:42;;;;;;;329.53;136.03;;;;;;;16.08;65.20;99258.44;344899;28;1537;-75
2022/04/26 04:12:53;;;;;;;328.98;136.10;;;;;;;16.10;64.97;99264.47;345052;28;1218;-75
2022/04/26 04:13:03;;;;;;;328.17;132.30;;;;;;;16.11;65.09;99258.25;343553;28;1046;-75
2022/04/26 04:13:13;;;;;;;328.88;131.63;;;;;;;16.08;65.10;99258.44;343457;28;1338;-75
2022/04/26 04:13:24;;;;;;;330.03;132.10;;;;;;;16.07;65.53;99254.13;344819;28;1602;-75
2022/04/26 04:13:34;;;;;;;331.43;133.80;;;;;;;16.10;65.14;99260.97;346391;28;813;-76
2022/04/26 04:13:46;;;;;;;331.45;134.55;;;;;;;16.10;65.24;99258.34;343405;28;1447;-76
2022/04/26 04:13:56;;;;;;;330.98;132.30;;;;;;;16.09;65.31;99260.13;343583;28;909;-76
2022/04/26 04:14:07;;;;;;;331.53;131.07;;;;;;;16.07;65.15;99262.03;342305;28;826;-76
2022/04/26 04:14:17;;;;;;;330.95;130.07;;;;;;;16.06;65.07;99263.00;342228;28;775;-76
2022/04/26 04:14:28;;;;;;;329.37;130.23;;;;;;;16.09;65.07;99254.00;343553;28;1381;-76
2022/04/26 04:14:39;;;;;;;327.27;129.68;;;;;;;16.07;64.93;99259.41;342217;28;814;-76
2022/04/26 04:14:49;;;;;;;326.83;129.33;;;;;;;16.10;64.78;99264.47;344968;28;1283;-75
2022/04/26 04:14:59;;;;;;;326.27;129.73;;;;;;;16.10;64.54;99266.25;344837;28;785;-75
2022/04/26 04:15:10;;;;;;;326.20;129.27;;;;;;;16.10;64.38;99261.81;344621;28;1531;-75
2022/04/26 04:15:20;;;;;;;323.65;128.82;;;;;;;16.08;64.60;99260.25;344888;28;1427;-75
2022/04/26 04:15:31;;;;;;;322.73;126.37;;;;;;;16.10;64.82;99267.09;345172;28;876;-75
2022/04/26 04:15:41;;;;;;;321.17;127.43;;;;;;;16.11;64.81;99266.16;345160;28;1579;-75
2022/04/26 04:15:52;;;;;;;322.73;129.73;;;;;;;16.10;64.67;99261.81;344764;28;1632;-75
2022/04/26 04:16:02;;;;;;;320.42;131.02;;;;;;;16.11;64.81;99266.16;346249;28;1208;-75
2022/04/26 04:16:12;;;;;;;321.83;130.40;;;;;;;16.12;65.29;99264.38;346209;28;919;-76
2022/04/26 04:16:23;;;;;;;321.40;128.82;;;;;;;16.12;65.07;99265.22;341999;28;1915;-76
2022/04/26 04:16:33;;;;;;;322.37;127.67;;;;;;;16.09;65.13;99265.41;344885;28;1192;-76
2022/04/26 04:16:44;;;;;;;325.37;128.50;;;;;;;16.10;64.93;99267.09;344030;28;1445;-76
2022/04/26 04:16:56;;;;;;;325.23;126.97;;;;;;;16.09;65.32;99265.41;344967;28;722;-76
2022/04/26 04:17:07;;;;;;;322.10;126.57;;;;;;;16.09;65.04;99262.78;343630;28;884;-76
2022/04/26 04:17:17;;;;;;;321.73;127.17;;;;;;;16.12;65.15;99264.38;343408;28;1150;-76
2022/04/26 04:17:28;;;;;;;322.00;127.72;;;;;;;16.13;65.24;99268.69;346314;28;1203;-76
2022/04/26 04:17:38;;;;;;;322.70;128.50;;;;;;;16.11;64.88;99263.50;346109;28;1212;-76
2022/04/26 04:17:48;;;;;;;323.90;129.43;;;;;;;16.10;64.87;99267.09;345482;28;865;-77
2022/04/26 04:17:59;;;;;;;325.70;129.80;;;;;;;16.12;64.92;99269.66;344837;28;2489;-76
2022/04/26 04:19:20;;;;;;;320.80;128.20;;;;;;;16.15;65.17;99272.06;343514;28;684;-76
2022/04/26 04:19:32;;;;;;;320.73;127.85;;;;;;;16.15;65.35;99264.16;342252;28;865;-76
2022/04/26 04:19:43;;;;;;;323.33;129.35;;;;;;;16.14;65.52;99268.59;343362;28;1370;-76
2022/04/26 04:19:53;;;;;;;325.80;129.80;;;;;;;16.14;65.94;99279.16;345934;28;1268;-76
2022/04/26 04:20:04;;;;;;;329.07;131.93;;;;;;;16.13;65.77;99269.53;343578;28;1477;-76
2022/04/26 04:20:15;;;;;;;328.85;133.32;;;;;;;16.09;65.66;99268.06;342792;28;3575;-76
2022/04/26 04:20:26;;;;;;;331.98;134.43;;;;;;;16.11;65.96;99268.78;340432;28;3985;-76
2022/04/26 04:20:36;;;;;;;327.83;132.73;;;;;;;16.09;66.34;99270.69;343875;28;3028;-76
2022/04/26 04:20:47;;;;;;;332.87;134.03;;;;;;;16.10;66.08;99266.25;344765;28;1205;-76
2022/04/26 04:20:57;;;;;;;334.73;134.82;;;;;;;16.06;66.48;99268.28;344144;28;5270;-75
2022/04/26 04:21:08;;;;;;;333.27;134.00;;;;;;;16.05;66.57;99276.28;344837;28;1434;-75
2022/04/26 04:21:19;;;;;;;324.20;130.32;;;;;;;16.04;66.73;99271.97;343404;28;1417;-75
2022/04/26 04:21:30;;;;;;;323.87;129.93;;;;;;;16.02;66.75;99264.19;345230;28;879;-76
2022/04/26 04:21:40;;;;;;;328.02;131.13;;;;;;;16.01;67.07;99267.78;343541;28;1268;-76
2022/04/26 04:21:51;;;;;;;329.13;131.23;;;;;;;16.02;66.94;99266.81;343598;28;848;-75
2022/04/26 04:22:01;;;;;;;326.60;131.40;;;;;;;16.04;66.84;99266.69;346187;28;1357;-76
2022/04/26 04:22:14;;;;;;;325.15;130.25;;;;;;;16.06;66.76;99267.44;347475;28;1237;-77
2022/04/26 04:22:24;;;;;;;323.10;131.15;;;;;;;16.04;66.82;99262.25;344641;28;1505;-77
2022/04/26 04:22:35;;;;;;;329.77;133.07;;;;;;;16.06;66.50;99263.00;344874;28;1366;-77
2022/04/26 04:22:48;;;;;;;332.87;133.50;;;;;;;16.07;66.54;99262.03;343613;28;877;-77
2022/04/26 04:22:58;;;;;;;331.92;131.27;;;;;;;16.09;66.62;99268.06;344873;28;913;-76
2022/04/26 04:23:09;;;;;;;330.45;131.88;;;;;;;16.08;66.84;99263.72;344994;28;817;-76
2022/04/26 04:23:19;;;;;;;332.80;133.13;;;;;;;16.10;66.83;99266.25;346301;28;925;-76
2022/04/26 04:23:30;;;;;;;332.90;132.85;;;;;;;16.11;66.57;99271.44;343824;28;1347;-76
2022/04/26 04:23:40;;;;;;;331.67;131.20;;;;;;;16.12;66.48;99270.50;343470;28;783;-76
2022/04/26 04:23:50;;;;;;;331.75;130.80;;;;;;;16.15;66.40;99269.44;344910;28;1602;-76
2022/04/26 04:24:01;;;;;;;333.77;132.17;;;;;;;16.16;66.33;99266.69;344830;28;1306;-76
2022/04/26 04:24:12;;;;;;;335.15;131.98;;;;;;;16.17;66.45;99268.38;343450;28;1349;-76
2022/04/26 04:24:23;;;;;;;333.17;132.27;;;;;;;16.17;66.24;99272.81;344982;28;909;-76
2022/04/26 04:24:33;;;;;;;331.70;133.53;;;;;;;16.18;66.63;99270.06;344876;28;968;-75
2022/04/26 04:24:44;;;;;;;329.65;134.38;;;;;;;16.17;66.38;99263.09;344887;28;1381;-75
2022/04/26 04:24:54;;;;;;;329.60;133.27;;;;;;;16.18;66.55;99270.06;346250;28;1322;-75
2022/04/26 04:25:06;;;;;;;330.30;131.90;;;;;;;16.20;66.34;99270.81;343264;28;1525;-75
2022/04/26 04:25:16;;;;;;;330.95;131.23;;;;;;;16.19;66.44;99269.13;343784;28;1624;-75
2022/04/26 04:25:27;;;;;;;329.05;129.25;;;;;;;16.17;66.40;99257.81;344926;28;809;-76
2022/04/26 04:25:37;;;;;;;325.20;129.33;;;;;;;16.19;66.40;99265.63;346218;28;910;-76
2022/04/26 04:25:48;;;;;;;324.42;132.02;;;;;;;16.19;66.17;99266.47;343495;28;801;-76
2022/04/26 04:25:58;;;;;;;326.33;134.83;;;;;;;16.19;66.01;99265.63;343513;28;1550;-76
2022/04/26 04:26:09;;;;;;;330.42;133.82;;;;;;;16.18;65.89;99264.78;343772;28;1375;-76
2022/04/26 04:26:19;;;;;;;331.47;133.73;;;;;;;16.18;65.20;99266.59;344395;28;885;-76